sensor_id;sensor_type;location;lat;lon;timestamp;pressure;altitude;pressure_sealevel;temperature;humidity
67377;BME280;54261;46.086;6.588;2023-05-20T00:00:24;92380.13;;;12.20;44.13
67377;BME280;54261;46.086;6.588;2023-05-20T00:05:26;92352.31;;;10.83;45.09
67377;BME280;54261;46.086;6.588;2023-05-20T00:10:28;92384.09;;;12.56;43.30
67377;BME280;54261;46.086;6.588;2023-05-20T00:15:30;92379.09;;;11.39;44.71
67377;BME280;54261;46.086;6.588;2023-05-20T00:20:33;92367.94;;;11.28;45.21
67377;BME280;54261;46.086;6.588;2023-05-20T00:25:34;92371.22;;;12.40;42.97
67377;BME280;54261;46.086;6.588;2023-05-20T00:30:40;92338.06;;;11.30;44.60
67377;BME280;54261;46.086;6.588;2023-05-20T00:35:42;92349.59;;;12.03;43.26
67377;BME280;54261;46.086;6.588;2023-05-20T00:40:44;92351.84;;;11.50;45.27
67377;BME280;54261;46.086;6.588;2023-05-20T00:45:46;92342.75;;;12.39;43.49
67377;BME280;54261;46.086;6.588;2023-05-20T00:50:49;92324.72;;;12.06;42.53
67377;BME280;54261;46.086;6.588;2023-05-20T00:55:51;92320.25;;;12.44;42.45
67377;BME280;54261;46.086;6.588;2023-05-20T01:00:54;92326.94;;;10.71;45.49
67377;BME280;54261;46.086;6.588;2023-05-20T01:05:56;92274.94;;;10.85;45.62
67377;BME280;54261;46.086;6.588;2023-05-20T01:11:05;92325.28;;;12.46;43.51
67377;BME280;54261;46.086;6.588;2023-05-20T01:16:10;92323.59;;;12.41;42.83
67377;BME280;54261;46.086;6.588;2023-05-20T01:21:12;92324.13;;;12.80;42.27
67377;BME280;54261;46.086;6.588;2023-05-20T01:26:16;92320.22;;;13.03;41.68
67377;BME280;54261;46.086;6.588;2023-05-20T01:31:23;92326.09;;;11.70;43.25
67377;BME280;54261;46.086;6.588;2023-05-20T01:36:27;92326.31;;;11.13;44.98
67377;BME280;54261;46.086;6.588;2023-05-20T01:41:29;92328.75;;;12.46;42.85
67377;BME280;54261;46.086;6.588;2023-05-20T01:46:33;92303.69;;;12.67;41.93
67377;BME280;54261;46.086;6.588;2023-05-20T01:51:37;92328.66;;;12.55;42.00
67377;BME280;54261;46.086;6.588;2023-05-20T01:56:39;92300.31;;;12.57;41.54
67377;BME280;54261;46.086;6.588;2023-05-20T02:01:41;92311.25;;;12.98;41.20
67377;BME280;54261;46.086;6.588;2023-05-20T02:06:44;92315.16;;;12.30;41.35
67377;BME280;54261;46.086;6.588;2023-05-20T02:11:46;92274.38;;;12.40;42.03
67377;BME280;54261;46.086;6.588;2023-05-20T02:16:48;92306.69;;;12.53;41.55
67377;BME280;54261;46.086;6.588;2023-05-20T02:21:50;92292.38;;;12.73;40.95
67377;BME280;54261;46.086;6.588;2023-05-20T02:26:52;92301.34;;;12.78;41.07
67377;BME280;54261;46.086;6.588;2023-05-20T02:31:55;92298.25;;;12.42;40.74
67377;BME280;54261;46.086;6.588;2023-05-20T02:36:57;92282.19;;;12.21;41.84
67377;BME280;54261;46.086;6.588;2023-05-20T02:41:59;92286.22;;;11.51;42.29
67377;BME280;54261;46.086;6.588;2023-05-20T02:47:01;92290.81;;;11.29;42.73
67377;BME280;54261;46.086;6.588;2023-05-20T02:52:03;92284.97;;;11.91;42.30
67377;BME280;54261;46.086;6.588;2023-05-20T02:57:05;92276.59;;;11.71;41.65
67377;BME280;54261;46.086;6.588;2023-05-20T03:02:07;92274.81;;;11.32;43.04
67377;BME280;54261;46.086;6.588;2023-05-20T03:07:09;92277.38;;;11.71;42.45
67377;BME280;54261;46.086;6.588;2023-05-20T03:12:11;92283.22;;;11.52;43.08
67377;BME280;54261;46.086;6.588;2023-05-20T03:17:13;92278.56;;;11.83;42.35
67377;BME280;54261;46.086;6.588;2023-05-20T03:22:16;92274.31;;;11.82;42.35
67377;BME280;54261;46.086;6.588;2023-05-20T03:27:18;92281.72;;;11.64;42.78
67377;BME280;54261;46.086;6.588;2023-05-20T03:32:20;92282.44;;;12.40;42.01
67377;BME280;54261;46.086;6.588;2023-05-20T03:37:22;92249.03;;;12.29;41.98
67377;BME280;54261;46.086;6.588;2023-05-20T03:42:24;92254.38;;;12.16;42.65
67377;BME280;54261;46.086;6.588;2023-05-20T03:47:27;92268.00;;;11.14;44.03
67377;BME280;54261;46.086;6.588;2023-05-20T03:52:29;92256.47;;;11.98;43.67
67377;BME280;54261;46.086;6.588;2023-05-20T03:57:31;92267.56;;;11.54;44.55
67377;BME280;54261;46.086;6.588;2023-05-20T04:02:33;92260.31;;;11.34;44.48
67377;BME280;54261;46.086;6.588;2023-05-20T04:07:36;92253.34;;;9.59;49.13
67377;BME280;54261;46.086;6.588;2023-05-20T04:12:40;92268.38;;;11.55;45.50
67377;BME280;54261;46.086;6.588;2023-05-20T04:17:42;92268.59;;;11.62;45.25
67377;BME280;54261;46.086;6.588;2023-05-20T04:22:45;92269.63;;;11.06;44.99
67377;BME280;54261;46.086;6.588;2023-05-20T04:27:49;92277.75;;;9.75;49.36
67377;BME280;54261;46.086;6.588;2023-05-20T04:32:52;92277.13;;;11.43;47.16
67377;BME280;54261;46.086;6.588;2023-05-20T04:37:54;92271.88;;;11.25;46.24
67377;BME280;54261;46.086;6.588;2023-05-20T04:42:58;92281.16;;;12.13;45.16
67377;BME280;54261;46.086;6.588;2023-05-20T04:48:01;92282.25;;;11.78;44.49
67377;BME280;54261;46.086;6.588;2023-05-20T04:53:04;92277.47;;;11.20;46.30
67377;BME280;54261;46.086;6.588;2023-05-20T04:58:08;92268.41;;;11.46;44.80
67377;BME280;54261;46.086;6.588;2023-05-20T05:03:16;92260.25;;;9.78;49.79
67377;BME280;54261;46.086;6.588;2023-05-20T05:08:18;92261.63;;;8.96;51.59
67377;BME280;54261;46.086;6.588;2023-05-20T05:13:24;92259.69;;;8.70;53.05
67377;BME280;54261;46.086;6.588;2023-05-20T05:18:27;92258.97;;;8.38;53.90
67377;BME280;54261;46.086;6.588;2023-05-20T05:23:29;92257.47;;;7.91;54.92
67377;BME280;54261;46.086;6.588;2023-05-20T05:28:32;92251.88;;;6.97;58.77
67377;BME280;54261;46.086;6.588;2023-05-20T05:33:34;92259.31;;;9.03;53.40
67377;BME280;54261;46.086;6.588;2023-05-20T05:38:36;92260.06;;;8.95;52.43
67377;BME280;54261;46.086;6.588;2023-05-20T05:43:38;92225.06;;;7.38;57.05
67377;BME280;54261;46.086;6.588;2023-05-20T05:48:41;92247.50;;;7.60;58.05
67377;BME280;54261;46.086;6.588;2023-05-20T05:53:43;92256.28;;;10.58;52.96
67377;BME280;54261;46.086;6.588;2023-05-20T05:58:45;92248.25;;;10.88;50.72
67377;BME280;54261;46.086;6.588;2023-05-20T06:03:50;92246.53;;;10.84;51.35
67377;BME280;54261;46.086;6.588;2023-05-20T06:08:53;92248.63;;;10.30;50.92
67377;BME280;54261;46.086;6.588;2023-05-20T06:13:55;92245.16;;;9.12;52.67
67377;BME280;54261;46.086;6.588;2023-05-20T06:18:58;92231.16;;;7.53;57.67
67377;BME280;54261;46.086;6.588;2023-05-20T06:24:04;92234.56;;;8.89;54.86
67377;BME280;54261;46.086;6.588;2023-05-20T06:29:09;92203.41;;;9.11;54.64
67377;BME280;54261;46.086;6.588;2023-05-20T06:34:11;92232.19;;;8.87;54.59
67377;BME280;54261;46.086;6.588;2023-05-20T06:39:13;92223.38;;;7.97;57.76
67377;BME280;54261;46.086;6.588;2023-05-20T06:44:18;92199.44;;;8.15;57.68
67377;BME280;54261;46.086;6.588;2023-05-20T06:49:31;92217.94;;;10.10;55.69
67377;BME280;54261;46.086;6.588;2023-05-20T06:54:34;92217.66;;;8.62;55.36
67377;BME280;54261;46.086;6.588;2023-05-20T06:59:41;92226.75;;;7.80;59.16
67377;BME280;54261;46.086;6.588;2023-05-20T07:04:43;92189.56;;;10.00;54.03
67377;BME280;54261;46.086;6.588;2023-05-20T07:09:45;92210.22;;;8.01;58.07
67377;BME280;54261;46.086;6.588;2023-05-20T07:14:47;92189.69;;;7.33;59.22
67377;BME280;54261;46.086;6.588;2023-05-20T07:19:49;92204.03;;;10.86;54.15
67377;BME280;54261;46.086;6.588;2023-05-20T07:24:51;92211.75;;;7.93;58.84
67377;BME280;54261;46.086;6.588;2023-05-20T07:29:54;92208.69;;;9.81;56.64
67377;BME280;54261;46.086;6.588;2023-05-20T07:34:56;92205.31;;;10.58;51.53
67377;BME280;54261;46.086;6.588;2023-05-20T07:39:57;92182.47;;;9.13;54.14
67377;BME280;54261;46.086;6.588;2023-05-20T07:44:59;92180.19;;;8.53;56.02
67377;BME280;54261;46.086;6.588;2023-05-20T07:50:03;92181.09;;;8.40;56.31
67377;BME280;54261;46.086;6.588;2023-05-20T07:55:07;92167.06;;;7.30;59.61
67377;BME280;54261;46.086;6.588;2023-05-20T08:00:10;92146.41;;;9.01;55.43
67377;BME280;54261;46.086;6.588;2023-05-20T08:05:17;92169.91;;;10.35;51.55
67377;BME280;54261;46.086;6.588;2023-05-20T08:10:20;92170.47;;;8.66;54.88
67377;BME280;54261;46.086;6.588;2023-05-20T08:15:23;92173.00;;;7.27;58.64
67377;BME280;54261;46.086;6.588;2023-05-20T08:20:25;92182.47;;;9.13;56.39
67377;BME280;54261;46.086;6.588;2023-05-20T08:25:27;92182.13;;;11.05;50.26
67377;BME280;54261;46.086;6.588;2023-05-20T08:30:29;92181.09;;;12.32;48.15
67377;BME280;54261;46.086;6.588;2023-05-20T08:35:31;92165.25;;;10.74;48.96
67377;BME280;54261;46.086;6.588;2023-05-20T08:40:34;92173.97;;;10.11;50.94
67377;BME280;54261;46.086;6.588;2023-05-20T08:45:37;92181.91;;;8.58;57.17
67377;BME280;54261;46.086;6.588;2023-05-20T08:50:49;92173.94;;;8.84;54.99
67377;BME280;54261;46.086;6.588;2023-05-20T08:56:00;92153.03;;;9.30;56.06
67377;BME280;54261;46.086;6.588;2023-05-20T09:01:04;92174.31;;;6.93;60.47
67377;BME280;54261;46.086;6.588;2023-05-20T09:06:07;92169.84;;;9.40;55.14
67377;BME280;54261;46.086;6.588;2023-05-20T09:11:10;92152.56;;;6.63;61.60
67377;BME280;54261;46.086;6.588;2023-05-20T09:16:12;92165.69;;;6.59;63.09
67377;BME280;54261;46.086;6.588;2023-05-20T09:21:14;92177.28;;;8.23;58.71
67377;BME280;54261;46.086;6.588;2023-05-20T09:26:17;92171.56;;;10.18;54.83
67377;BME280;54261;46.086;6.588;2023-05-20T09:31:19;92175.94;;;12.14;48.29
67377;BME280;54261;46.086;6.588;2023-05-20T09:36:22;92159.91;;;8.61;54.59
67377;BME280;54261;46.086;6.588;2023-05-20T09:41:38;92161.66;;;8.07;56.99
67377;BME280;54261;46.086;6.588;2023-05-20T09:46:46;92165.28;;;8.61;54.96
67377;BME280;54261;46.086;6.588;2023-05-20T09:51:50;92161.47;;;11.06;51.12
67377;BME280;54261;46.086;6.588;2023-05-20T09:56:53;92170.47;;;8.92;53.27
67377;BME280;54261;46.086;6.588;2023-05-20T10:01:56;92168.81;;;8.39;56.50
67377;BME280;54261;46.086;6.588;2023-05-20T10:18:34;92162.06;;;11.24;50.12
67377;BME280;54261;46.086;6.588;2023-05-20T10:23:38;92166.50;;;12.08;48.30
67377;BME280;54261;46.086;6.588;2023-05-20T10:28:40;92158.69;;;10.03;51.34
67377;BME280;54261;46.086;6.588;2023-05-20T10:33:44;92152.88;;;9.09;55.75
67377;BME280;54261;46.086;6.588;2023-05-20T10:38:56;92164.31;;;11.00;53.44
67377;BME280;54261;46.086;6.588;2023-05-20T10:44:03;92163.25;;;9.94;53.05
67377;BME280;54261;46.086;6.588;2023-05-20T10:49:16;92156.09;;;8.44;56.85
67377;BME280;54261;46.086;6.588;2023-05-20T10:54:19;92150.72;;;10.24;53.59
67377;BME280;54261;46.086;6.588;2023-05-20T10:59:21;92150.81;;;9.89;53.20
67377;BME280;54261;46.086;6.588;2023-05-20T11:04:23;92154.34;;;10.80;52.73
67377;BME280;54261;46.086;6.588;2023-05-20T11:09:25;92115.91;;;9.68;54.03
67377;BME280;54261;46.086;6.588;2023-05-20T11:14:28;92151.41;;;10.12;53.71
67377;BME280;54261;46.086;6.588;2023-05-20T11:19:30;92145.72;;;10.14;53.42
67377;BME280;54261;46.086;6.588;2023-05-20T11:24:32;92148.56;;;12.12;48.78
67377;BME280;54261;46.086;6.588;2023-05-20T11:29:34;92141.25;;;11.54;48.91
67377;BME280;54261;46.086;6.588;2023-05-20T11:34:37;92129.47;;;11.13;49.77
67377;BME280;54261;46.086;6.588;2023-05-20T11:39:39;92129.47;;;10.10;52.73
67377;BME280;54261;46.086;6.588;2023-05-20T11:44:42;92122.38;;;11.29;50.58
67377;BME280;54261;46.086;6.588;2023-05-20T11:49:47;92114.41;;;11.21;51.95
67377;BME280;54261;46.086;6.588;2023-05-20T11:54:51;92114.97;;;12.19;49.33
67377;BME280;54261;46.086;6.588;2023-05-20T11:59:53;92125.16;;;11.67;49.94
67377;BME280;54261;46.086;6.588;2023-05-20T12:04:56;92115.19;;;13.04;47.14
67377;BME280;54261;46.086;6.588;2023-05-20T12:09:58;92112.66;;;12.70;46.36
67377;BME280;54261;46.086;6.588;2023-05-20T12:15:03;92102.25;;;12.44;48.18
67377;BME280;54261;46.086;6.588;2023-05-20T12:20:06;92110.50;;;13.74;44.70
67377;BME280;54261;46.086;6.588;2023-05-20T12:25:10;92112.28;;;10.41;52.45
67377;BME280;54261;46.086;6.588;2023-05-20T12:30:18;92125.06;;;11.29;51.09
67377;BME280;54261;46.086;6.588;2023-05-20T12:35:34;92127.06;;;11.54;49.40
67377;BME280;54261;46.086;6.588;2023-05-20T12:40:37;92123.13;;;12.47;48.26
67377;BME280;54261;46.086;6.588;2023-05-20T12:45:39;92115.88;;;11.64;49.77
67377;BME280;54261;46.086;6.588;2023-05-20T12:50:41;92099.38;;;12.12;49.25
67377;BME280;54261;46.086;6.588;2023-05-20T12:55:44;92121.75;;;13.19;47.55
67377;BME280;54261;46.086;6.588;2023-05-20T13:00:45;92119.53;;;11.47;49.59
67377;BME280;54261;46.086;6.588;2023-05-20T13:05:47;92123.13;;;12.35;47.27
67377;BME280;54261;46.086;6.588;2023-05-20T13:10:49;92129.53;;;13.08;46.75
67377;BME280;54261;46.086;6.588;2023-05-20T13:15:53;92130.47;;;13.28;47.74
67377;BME280;54261;46.086;6.588;2023-05-20T13:20:55;92128.34;;;13.50;46.41
67377;BME280;54261;46.086;6.588;2023-05-20T13:25:57;92134.34;;;12.12;48.44
67377;BME280;54261;46.086;6.588;2023-05-20T13:31:00;92092.88;;;12.13;48.20
67377;BME280;54261;46.086;6.588;2023-05-20T13:36:03;92137.38;;;11.64;50.62
67377;BME280;54261;46.086;6.588;2023-05-20T13:41:04;92128.28;;;12.65;48.30
67377;BME280;54261;46.086;6.588;2023-05-20T13:46:06;92138.69;;;12.54;47.19
67377;BME280;54261;46.086;6.588;2023-05-20T13:51:08;92136.38;;;12.27;49.43
67377;BME280;54261;46.086;6.588;2023-05-20T13:56:10;92126.72;;;14.06;45.31
67377;BME280;54261;46.086;6.588;2023-05-20T14:01:12;92117.94;;;12.92;46.62
67377;BME280;54261;46.086;6.588;2023-05-20T14:06:16;92126.44;;;14.60;44.72
67377;BME280;54261;46.086;6.588;2023-05-20T14:11:19;92110.09;;;15.08;42.72
67377;BME280;54261;46.086;6.588;2023-05-20T14:16:22;92099.50;;;13.22;47.07
67377;BME280;54261;46.086;6.588;2023-05-20T14:21:24;92107.28;;;11.83;50.31
67377;BME280;54261;46.086;6.588;2023-05-20T14:26:26;92099.38;;;12.24;48.94
67377;BME280;54261;46.086;6.588;2023-05-20T14:31:27;92098.69;;;12.02;50.05
67377;BME280;54261;46.086;6.588;2023-05-20T14:36:29;92104.53;;;13.97;46.61
67377;BME280;54261;46.086;6.588;2023-05-20T14:41:31;92113.50;;;12.09;48.87
67377;BME280;54261;46.086;6.588;2023-05-20T14:46:33;92118.94;;;14.37;45.38
67377;BME280;54261;46.086;6.588;2023-05-20T14:51:35;92119.94;;;13.80;46.81
67377;BME280;54261;46.086;6.588;2023-05-20T14:56:37;92110.44;;;13.87;45.59
67377;BME280;54261;46.086;6.588;2023-05-20T15:01:39;92112.81;;;12.12;50.00
67377;BME280;54261;46.086;6.588;2023-05-20T15:06:41;92104.72;;;13.15;47.69
67377;BME280;54261;46.086;6.588;2023-05-20T15:11:43;92108.78;;;11.47;50.55
67377;BME280;54261;46.086;6.588;2023-05-20T15:16:45;92114.44;;;13.77;47.16
67377;BME280;54261;46.086;6.588;2023-05-20T15:21:47;92116.34;;;14.40;45.79
67377;BME280;54261;46.086;6.588;2023-05-20T15:26:52;92113.50;;;15.64;42.31
67377;BME280;54261;46.086;6.588;2023-05-20T15:31:55;92114.75;;;13.31;46.19
67377;BME280;54261;46.086;6.588;2023-05-20T15:36:57;92123.31;;;13.93;44.25
67377;BME280;54261;46.086;6.588;2023-05-20T15:41:59;92128.34;;;13.79;45.88
67377;BME280;54261;46.086;6.588;2023-05-20T15:47:02;92126.25;;;13.15;47.30
67377;BME280;54261;46.086;6.588;2023-05-20T15:52:06;92051.59;;;13.60;45.63
67377;BME280;54261;46.086;6.588;2023-05-20T15:57:08;92130.75;;;15.56;43.61
67377;BME280;54261;46.086;6.588;2023-05-20T16:02:10;92125.00;;;14.82;43.48
67377;BME280;54261;46.086;6.588;2023-05-20T16:07:13;92127.53;;;13.62;45.95
67377;BME280;54261;46.086;6.588;2023-05-20T16:12:15;92129.94;;;12.69;48.19
67377;BME280;54261;46.086;6.588;2023-05-20T16:17:17;92125.72;;;13.66;46.81
67377;BME280;54261;46.086;6.588;2023-05-20T16:22:21;92117.56;;;15.15;43.48
67377;BME280;54261;46.086;6.588;2023-05-20T16:27:23;92123.16;;;14.50;44.58
67377;BME280;54261;46.086;6.588;2023-05-20T16:32:25;92129.16;;;14.60;44.17
67377;BME280;54261;46.086;6.588;2023-05-20T16:37:27;92108.81;;;11.72;49.50
67377;BME280;54261;46.086;6.588;2023-05-20T16:42:29;92123.72;;;14.76;45.27
67377;BME280;54261;46.086;6.588;2023-05-20T16:47:31;92125.06;;;13.85;44.58
67377;BME280;54261;46.086;6.588;2023-05-20T16:52:34;92123.41;;;13.81;45.84
67377;BME280;54261;46.086;6.588;2023-05-20T16:57:36;92125.56;;;13.18;47.02
67377;BME280;54261;46.086;6.588;2023-05-20T17:02:38;92126.84;;;14.46;44.80
67377;BME280;54261;46.086;6.588;2023-05-20T17:07:40;92125.03;;;12.59;47.59
67377;BME280;54261;46.086;6.588;2023-05-20T17:12:42;92102.00;;;13.72;44.52
67377;BME280;54261;46.086;6.588;2023-05-20T17:17:44;92130.59;;;12.79;46.92
67377;BME280;54261;46.086;6.588;2023-05-20T17:22:46;92135.03;;;13.69;46.37
67377;BME280;54261;46.086;6.588;2023-05-20T17:27:47;92132.81;;;13.59;45.41
67377;BME280;54261;46.086;6.588;2023-05-20T17:32:49;92128.03;;;15.16;42.92
67377;BME280;54261;46.086;6.588;2023-05-20T17:37:54;92130.97;;;15.27;42.71
67377;BME280;54261;46.086;6.588;2023-05-20T17:42:56;92130.78;;;14.32;44.21
67377;BME280;54261;46.086;6.588;2023-05-20T17:47:58;92151.78;;;13.62;44.53
67377;BME280;54261;46.086;6.588;2023-05-20T17:53:00;92151.69;;;12.64;46.39
67377;BME280;54261;46.086;6.588;2023-05-20T17:58:02;92163.38;;;12.56;46.79
67377;BME280;54261;46.086;6.588;2023-05-20T18:03:04;92143.91;;;13.00;45.10
67377;BME280;54261;46.086;6.588;2023-05-20T18:08:06;92160.28;;;13.77;45.35
67377;BME280;54261;46.086;6.588;2023-05-20T18:13:08;92169.66;;;12.85;46.66
67377;BME280;54261;46.086;6.588;2023-05-20T18:18:10;92175.53;;;14.01;44.82
67377;BME280;54261;46.086;6.588;2023-05-20T18:23:12;92185.84;;;14.76;42.06
67377;BME280;54261;46.086;6.588;2023-05-20T18:28:14;92182.91;;;15.01;42.08
67377;BME280;54261;46.086;6.588;2023-05-20T18:33:16;92174.47;;;13.74;44.31
67377;BME280;54261;46.086;6.588;2023-05-20T18:38:19;92179.13;;;14.05;43.10
67377;BME280;54261;46.086;6.588;2023-05-20T18:43:21;92177.47;;;14.33;42.11
67377;BME280;54261;46.086;6.588;2023-05-20T18:48:23;92185.03;;;13.38;43.85
67377;BME280;54261;46.086;6.588;2023-05-20T18:53:28;92173.00;;;13.92;43.00
67377;BME280;54261;46.086;6.588;2023-05-20T18:58:29;92160.69;;;12.56;45.69
67377;BME280;54261;46.086;6.588;2023-05-20T19:03:32;92169.84;;;14.51;42.10
67377;BME280;54261;46.086;6.588;2023-05-20T19:08:34;92171.81;;;14.38;41.55
67377;BME280;54261;46.086;6.588;2023-05-20T19:13:36;92171.97;;;14.45;42.16
67377;BME280;54261;46.086;6.588;2023-05-20T19:18:38;92183.13;;;14.76;41.13
67377;BME280;54261;46.086;6.588;2023-05-20T19:23:40;92187.50;;;13.72;43.12
67377;BME280;54261;46.086;6.588;2023-05-20T19:28:42;92182.66;;;12.70;44.88
67377;BME280;54261;46.086;6.588;2023-05-20T19:33:43;92188.34;;;13.19;45.51
67377;BME280;54261;46.086;6.588;2023-05-20T19:38:45;92181.75;;;12.54;44.97
67377;BME280;54261;46.086;6.588;2023-05-20T19:43:48;92196.41;;;11.94;46.72
67377;BME280;54261;46.086;6.588;2023-05-20T19:48:50;92186.00;;;13.74;43.94
67377;BME280;54261;46.086;6.588;2023-05-20T19:53:51;92194.78;;;13.71;43.87
67377;BME280;54261;46.086;6.588;2023-05-20T19:58:54;92199.38;;;12.39;45.69
67377;BME280;54261;46.086;6.588;2023-05-20T20:03:58;92191.84;;;13.48;44.61
67377;BME280;54261;46.086;6.588;2023-05-20T20:09:00;92193.56;;;13.68;44.22
67377;BME280;54261;46.086;6.588;2023-05-20T20:14:01;92184.56;;;13.64;43.11
67377;BME280;54261;46.086;6.588;2023-05-20T20:19:03;92192.25;;;14.07;42.95
67377;BME280;54261;46.086;6.588;2023-05-20T20:24:05;92192.19;;;12.93;45.03
67377;BME280;54261;46.086;6.588;2023-05-20T20:29:07;92190.06;;;13.96;43.57
67377;BME280;54261;46.086;6.588;2023-05-20T20:34:09;92188.69;;;12.05;46.55
67377;BME280;54261;46.086;6.588;2023-05-20T20:39:11;92193.13;;;13.66;44.79
67377;BME280;54261;46.086;6.588;2023-05-20T20:44:23;92187.25;;;12.95;44.70
67377;BME280;54261;46.086;6.588;2023-05-20T20:49:26;92182.38;;;13.25;44.74
67377;BME280;54261;46.086;6.588;2023-05-20T20:54:29;92184.72;;;13.14;44.43
67377;BME280;54261;46.086;6.588;2023-05-20T20:59:33;92186.25;;;11.24;49.01
67377;BME280;54261;46.086;6.588;2023-05-20T21:04:36;92185.56;;;13.03;44.84
67377;BME280;54261;46.086;6.588;2023-05-20T21:09:40;92182.47;;;13.57;44.71
67377;BME280;54261;46.086;6.588;2023-05-20T21:14:42;92179.47;;;14.20;43.58
67377;BME280;54261;46.086;6.588;2023-05-20T21:19:44;92187.81;;;12.76;44.31
67377;BME280;54261;46.086;6.588;2023-05-20T21:24:46;92176.59;;;12.11;46.93
67377;BME280;54261;46.086;6.588;2023-05-20T21:29:48;92165.41;;;12.59;45.05
67377;BME280;54261;46.086;6.588;2023-05-20T21:34:51;92165.22;;;13.46;45.02
67377;BME280;54261;46.086;6.588;2023-05-20T21:39:53;92179.97;;;13.36;44.39
67377;BME280;54261;46.086;6.588;2023-05-20T21:44:55;92184.53;;;14.05;43.25
67377;BME280;54261;46.086;6.588;2023-05-20T21:49:56;92174.28;;;13.82;42.96
67377;BME280;54261;46.086;6.588;2023-05-20T21:54:58;92176.28;;;12.50;45.20
67377;BME280;54261;46.086;6.588;2023-05-20T22:00:00;92160.38;;;13.52;44.75
67377;BME280;54261;46.086;6.588;2023-05-20T22:05:05;92155.53;;;14.02;43.04
67377;BME280;54261;46.086;6.588;2023-05-20T22:10:08;92147.50;;;14.38;42.58
67377;BME280;54261;46.086;6.588;2023-05-20T22:15:10;92136.28;;;13.88;42.57
67377;BME280;54261;46.086;6.588;2023-05-20T22:20:12;92143.53;;;14.48;41.75
67377;BME280;54261;46.086;6.588;2023-05-20T22:25:14;92139.66;;;13.56;43.03
67377;BME280;54261;46.086;6.588;2023-05-20T22:30:17;92142.56;;;13.92;42.98
67377;BME280;54261;46.086;6.588;2023-05-20T22:35:19;92131.25;;;13.86;43.04
67377;BME280;54261;46.086;6.588;2023-05-20T22:40:21;92132.91;;;13.62;42.86
67377;BME280;54261;46.086;6.588;2023-05-20T22:45:23;92126.03;;;13.49;43.58
67377;BME280;54261;46.086;6.588;2023-05-20T22:50:25;92127.84;;;13.89;42.66
67377;BME280;54261;46.086;6.588;2023-05-20T22:55:28;92128.84;;;13.11;44.13
67377;BME280;54261;46.086;6.588;2023-05-20T23:00:30;92127.53;;;13.62;43.06
67377;BME280;54261;46.086;6.588;2023-05-20T23:05:31;92118.44;;;13.99;42.95
67377;BME280;54261;46.086;6.588;2023-05-20T23:10:33;92113.03;;;13.83;43.21
67377;BME280;54261;46.086;6.588;2023-05-20T23:15:35;92117.56;;;14.27;42.45
67377;BME280;54261;46.086;6.588;2023-05-20T23:20:38;92101.56;;;13.70;42.16
67377;BME280;54261;46.086;6.588;2023-05-20T23:25:41;92109.22;;;14.00;42.29
67377;BME280;54261;46.086;6.588;2023-05-20T23:30:46;92116.69;;;14.39;41.61
67377;BME280;54261;46.086;6.588;2023-05-20T23:35:48;92120.25;;;13.79;42.17
67377;BME280;54261;46.086;6.588;2023-05-20T23:40:50;92117.56;;;13.50;42.47
67377;BME280;54261;46.086;6.588;2023-05-20T23:45:52;92111.00;;;13.07;42.67
67377;BME280;54261;46.086;6.588;2023-05-20T23:50:54;92098.78;;;13.38;43.13
67377;BME280;54261;46.086;6.588;2023-05-20T23:55:56;92117.97;;;13.65;43.09
